createdAt,value
2022-08-26T00:04:37.601Z,101201.88
2022-08-26T00:14:59.262Z,101201.22
2022-08-26T00:25:22.718Z,101189.44
2022-08-26T00:35:45.321Z,101180.31
2022-08-26T00:46:13.941Z,101185.13
2022-08-26T00:56:48.592Z,101189.97
2022-08-26T01:07:10.580Z,101182.97
2022-08-26T01:17:33.749Z,101185.97
2022-08-26T01:27:58.788Z,101181.50
2022-08-26T01:38:20.539Z,101182.16
2022-08-26T01:48:46.810Z,101187.63
2022-08-26T01:59:13.565Z,101189.97
2022-08-26T02:09:42.548Z,101182.78
2022-08-26T02:20:05.241Z,101183.41
2022-08-26T02:30:32.067Z,101173.16
2022-08-26T02:40:53.614Z,101176.16
2022-08-26T02:51:15.182Z,101167.16
2022-08-26T03:01:37.171Z,101175.28
2022-08-26T03:11:59.620Z,101167.31
2022-08-26T03:22:21.394Z,101163.13
2022-08-26T03:32:44.511Z,101162.53
2022-08-26T03:43:07.511Z,101166.22
2022-08-26T03:53:31.422Z,101165.34
2022-08-26T04:04:00.304Z,101166.91
2022-08-26T04:14:24.490Z,101163.28
2022-08-26T04:24:46.402Z,101157.69
2022-08-26T04:35:08.245Z,101164.66
2022-08-26T04:45:30.687Z,101165.00
2022-08-26T04:55:52.485Z,101176.06
2022-08-26T05:06:17.214Z,101162.81
2022-08-26T05:16:40.707Z,101164.47
2022-08-26T05:27:03.199Z,101169.38
2022-08-26T05:37:33.115Z,101173.06
2022-08-26T05:47:56.017Z,101165.34
2022-08-26T05:58:20.912Z,101160.63
2022-08-26T06:08:43.814Z,101177.44
2022-08-26T06:19:11.067Z,101181.75
2022-08-26T06:29:34.966Z,101178.13
2022-08-26T06:39:57.861Z,101178.31
2022-08-26T06:50:19.417Z,101188.44
2022-08-26T07:00:41.634Z,101200.72
2022-08-26T07:11:11.204Z,101214.66
2022-08-26T07:21:34.050Z,101209.56
2022-08-26T07:31:56.318Z,101213.88
2022-08-26T07:42:20.427Z,101240.94
2022-08-26T07:52:42.753Z,101245.91
2022-08-26T08:03:06.174Z,101250.03
2022-08-26T08:13:29.281Z,101253.25
2022-08-26T08:23:55.462Z,101257.91
2022-08-26T08:34:18.358Z,101250.22
2022-08-26T08:44:44.291Z,101245.00
2022-08-26T08:55:18.110Z,101246.50
2022-08-26T09:05:48.568Z,101247.38
2022-08-26T09:16:19.073Z,101243.00
2022-08-26T09:26:48.123Z,101246.19
2022-08-26T09:37:09.729Z,101263.31
2022-08-26T09:47:53.166Z,101268.09
2022-08-26T09:58:31.112Z,101259.56
2022-08-26T10:09:02.651Z,101258.53
2022-08-26T10:19:55.979Z,101245.91
2022-08-26T10:30:29.232Z,101249.13
2022-08-26T10:40:56.660Z,101247.56
2022-08-26T10:51:26.847Z,101260.91
2022-08-26T11:02:08.732Z,101255.03
2022-08-26T11:12:36.392Z,101242.69
2022-08-26T11:23:21.220Z,101235.72
2022-08-26T11:33:50.982Z,101238.22
2022-08-26T11:44:18.710Z,101218.94
2022-08-26T11:54:40.780Z,101228.94
2022-08-26T12:05:03.070Z,101222.34
2022-08-26T12:15:26.403Z,101217.34
2022-08-26T12:25:54.087Z,101211.56
2022-08-26T12:36:22.387Z,101220.69
2022-08-26T12:46:47.887Z,101205.00
2022-08-26T12:57:12.906Z,101212.63
2022-08-26T13:07:34.531Z,101213.41
2022-08-26T13:17:58.245Z,101216.00
2022-08-26T13:28:20.132Z,101221.97
2022-08-26T13:38:41.849Z,101251.63
2022-08-26T13:49:10.723Z,101267.22
2022-08-26T13:59:32.518Z,101257.78
2022-08-26T14:09:54.493Z,101268.41
2022-08-26T14:20:21.064Z,101249.31
2022-08-26T14:30:47.482Z,101240.91
2022-08-26T14:41:10.029Z,101260.38
2022-08-26T14:51:31.734Z,101244.06
2022-08-26T15:01:54.802Z,101260.38
2022-08-26T15:12:16.533Z,101262.03
2022-08-26T15:22:39.438Z,101252.91
2022-08-26T15:33:01.047Z,101245.56
2022-08-26T15:43:28.774Z,101248.09
2022-08-26T15:53:51.357Z,101235.13
2022-08-26T16:04:13.969Z,101232.19
2022-08-26T16:14:35.547Z,101252.91
2022-08-26T16:24:57.836Z,101253.63
2022-08-26T16:35:19.448Z,101271.69
2022-08-26T16:45:40.983Z,101265.06
2022-08-26T16:56:04.108Z,101274.75
2022-08-26T17:06:25.677Z,101284.41
2022-08-26T17:16:51.200Z,101283.34
2022-08-26T17:27:15.264Z,101300.13
2022-08-26T17:37:36.909Z,101326.13
2022-08-26T17:47:59.234Z,101332.03
2022-08-26T17:58:23.247Z,101333.34
2022-08-26T18:08:46.077Z,101340.88
2022-08-26T18:19:08.295Z,101343.47
2022-08-26T18:29:29.902Z,101352.44
2022-08-26T18:39:51.494Z,101363.63
2022-08-26T18:50:13.354Z,101346.19
2022-08-26T19:00:34.895Z,101352.94
2022-08-26T19:10:56.439Z,101367.91
2022-08-26T19:21:19.582Z,101378.59
2022-08-26T19:31:42.240Z,101369.66
2022-08-26T19:42:05.802Z,101365.81
2022-08-26T19:52:30.017Z,101353.41
2022-08-26T20:02:52.907Z,101351.31
2022-08-26T20:13:14.769Z,101356.84
2022-08-26T20:23:36.988Z,101352.13
2022-08-26T20:33:58.864Z,101355.69
2022-08-26T20:44:22.029Z,101370.41
2022-08-26T20:54:43.651Z,101367.50
2022-08-26T21:05:06.358Z,101373.59
2022-08-26T21:15:28.004Z,101378.16
2022-08-26T21:25:49.889Z,101386.69
2022-08-26T21:36:12.571Z,101388.16
2022-08-26T21:46:37.408Z,101405.16
2022-08-26T21:56:59.056Z,101393.34
2022-08-26T22:07:21.314Z,101396.91
2022-08-26T22:17:42.893Z,101402.22
2022-08-26T22:28:05.020Z,101399.66
2022-08-26T22:38:26.587Z,101402.44
2022-08-26T22:48:53.763Z,101403.25
2022-08-26T22:59:16.473Z,101414.56
2022-08-26T23:09:38.055Z,101400.50
2022-08-26T23:19:59.807Z,101399.88
2022-08-26T23:30:25.531Z,101400.94
2022-08-26T23:40:48.439Z,101396.28
2022-08-26T23:51:29.869Z,101379.28
